sensor_id;sensor_type;location;lat;lon;timestamp;P1;P2;P0
49343;PMS5003;35210;41.606;-87.602;2023-04-15T00:00:37;19.60;17.80;13.00
49343;PMS5003;35210;41.606;-87.602;2023-04-15T00:03:07;20.00;19.00;14.25
49343;PMS5003;35210;41.606;-87.602;2023-04-15T00:05:35;15.00;14.50;10.00
49343;PMS5003;35210;41.606;-87.602;2023-04-15T00:08:04;23.00;23.00;15.75
49343;PMS5003;35210;41.606;-87.602;2023-04-15T00:10:32;23.00;20.00;12.00
49343;PMS5003;35210;41.606;-87.602;2023-04-15T00:13:00;19.50;19.00;14.75
49343;PMS5003;35210;41.606;-87.602;2023-04-15T00:15:29;19.00;18.50;15.25
49343;PMS5003;35210;41.606;-87.602;2023-04-15T00:17:57;21.25;20.25;17.00
49343;PMS5003;35210;41.606;-87.602;2023-04-15T00:20:27;19.50;19.50;15.25
49343;PMS5003;35210;41.606;-87.602;2023-04-15T00:22:55;17.60;17.60;13.00
49343;PMS5003;35210;41.606;-87.602;2023-04-15T00:25:25;22.75;20.00;15.00
49343;PMS5003;35210;41.606;-87.602;2023-04-15T00:27:53;25.50;22.50;16.25
49343;PMS5003;35210;41.606;-87.602;2023-04-15T00:30:21;22.40;21.40;14.40
49343;PMS5003;35210;41.606;-87.602;2023-04-15T00:32:50;20.25;20.25;15.25
49343;PMS5003;35210;41.606;-87.602;2023-04-15T00:35:18;17.75;15.00;10.00
49343;PMS5003;35210;41.606;-87.602;2023-04-15T00:37:47;20.50;19.00;13.75
49343;PMS5003;35210;41.606;-87.602;2023-04-15T00:40:16;17.75;17.00;13.75
49343;PMS5003;35210;41.606;-87.602;2023-04-15T00:42:49;24.25;19.25;13.50
49343;PMS5003;35210;41.606;-87.602;2023-04-15T00:45:17;33.75;25.00;17.50
49343;PMS5003;35210;41.606;-87.602;2023-04-15T00:47:45;24.25;21.75;15.25
49343;PMS5003;35210;41.606;-87.602;2023-04-15T00:50:13;23.80;22.00;14.40
49343;PMS5003;35210;41.606;-87.602;2023-04-15T00:52:41;21.50;21.50;16.50
49343;PMS5003;35210;41.606;-87.602;2023-04-15T00:55:11;22.75;21.50;15.25
49343;PMS5003;35210;41.606;-87.602;2023-04-15T00:57:39;21.25;20.75;16.00
49343;PMS5003;35210;41.606;-87.602;2023-04-15T01:00:08;23.75;20.25;15.75
49343;PMS5003;35210;41.606;-87.602;2023-04-15T01:02:37;22.50;21.75;14.25
49343;PMS5003;35210;41.606;-87.602;2023-04-15T01:05:05;22.00;18.25;12.00
49343;PMS5003;35210;41.606;-87.602;2023-04-15T01:07:33;23.25;21.00;15.00
49343;PMS5003;35210;41.606;-87.602;2023-04-15T01:10:02;20.00;16.25;11.75
49343;PMS5003;35210;41.606;-87.602;2023-04-15T01:12:34;23.00;21.50;15.00
49343;PMS5003;35210;41.606;-87.602;2023-04-15T01:15:03;21.00;20.00;14.00
49343;PMS5003;35210;41.606;-87.602;2023-04-15T01:17:32;26.25;22.00;15.00
49343;PMS5003;35210;41.606;-87.602;2023-04-15T01:20:01;25.00;23.25;18.25
49343;PMS5003;35210;41.606;-87.602;2023-04-15T01:22:30;23.75;23.75;17.00
49343;PMS5003;35210;41.606;-87.602;2023-04-15T01:25:01;21.25;18.50;13.00
49343;PMS5003;35210;41.606;-87.602;2023-04-15T01:27:34;24.50;22.25;16.50
49343;PMS5003;35210;41.606;-87.602;2023-04-15T01:30:06;22.75;21.50;15.25
49343;PMS5003;35210;41.606;-87.602;2023-04-15T01:32:36;27.75;23.75;16.25
49343;PMS5003;35210;41.606;-87.602;2023-04-15T01:35:04;25.40;24.40;15.00
49343;PMS5003;35210;41.606;-87.602;2023-04-15T01:37:33;29.50;25.00;18.00
49343;PMS5003;35210;41.606;-87.602;2023-04-15T01:40:02;26.80;25.40;17.60
49343;PMS5003;35210;41.606;-87.602;2023-04-15T01:42:31;16.50;15.25;10.00
49343;PMS5003;35210;41.606;-87.602;2023-04-15T01:45:00;24.75;24.50;16.00
49343;PMS5003;35210;41.606;-87.602;2023-04-15T01:47:29;26.50;23.25;16.25
49343;PMS5003;35210;41.606;-87.602;2023-04-15T01:49:57;18.80;17.80;13.20
49343;PMS5003;35210;41.606;-87.602;2023-04-15T01:52:25;21.40;20.00;14.00
49343;PMS5003;35210;41.606;-87.602;2023-04-15T01:54:53;24.25;19.75;15.00
49343;PMS5003;35210;41.606;-87.602;2023-04-15T01:57:23;22.25;21.25;14.50
49343;PMS5003;35210;41.606;-87.602;2023-04-15T01:59:51;25.25;25.00;18.00
49343;PMS5003;35210;41.606;-87.602;2023-04-15T02:02:21;26.00;24.25;16.75
49343;PMS5003;35210;41.606;-87.602;2023-04-15T02:04:49;27.75;22.00;15.50
49343;PMS5003;35210;41.606;-87.602;2023-04-15T02:07:18;27.00;24.00;17.00
49343;PMS5003;35210;41.606;-87.602;2023-04-15T02:09:46;24.25;19.50;15.00
49343;PMS5003;35210;41.606;-87.602;2023-04-15T02:12:15;22.50;22.25;16.25
49343;PMS5003;35210;41.606;-87.602;2023-04-15T02:14:43;28.50;26.75;17.50
49343;PMS5003;35210;41.606;-87.602;2023-04-15T02:17:11;27.75;26.25;18.25
49343;PMS5003;35210;41.606;-87.602;2023-04-15T02:19:41;33.25;24.75;17.50
49343;PMS5003;35210;41.606;-87.602;2023-04-15T02:22:09;23.50;22.25;15.50
49343;PMS5003;35210;41.606;-87.602;2023-04-15T02:24:42;22.50;22.50;17.25
49343;PMS5003;35210;41.606;-87.602;2023-04-15T02:27:14;16.25;16.25;14.00
49343;PMS5003;35210;41.606;-87.602;2023-04-15T02:29:43;17.80;17.80;12.20
49343;PMS5003;35210;41.606;-87.602;2023-04-15T02:32:12;27.00;24.00;16.50
49343;PMS5003;35210;41.606;-87.602;2023-04-15T02:34:42;28.50;25.75;17.00
49343;PMS5003;35210;41.606;-87.602;2023-04-15T02:37:10;25.75;25.00;16.75
49343;PMS5003;35210;41.606;-87.602;2023-04-15T02:39:39;25.25;25.00;16.75
49343;PMS5003;35210;41.606;-87.602;2023-04-15T02:42:09;22.00;21.25;16.75
49343;PMS5003;35210;41.606;-87.602;2023-04-15T02:44:37;23.00;22.00;16.00
49343;PMS5003;35210;41.606;-87.602;2023-04-15T02:47:06;28.00;25.80;18.60
49343;PMS5003;35210;41.606;-87.602;2023-04-15T02:49:35;25.67;23.67;17.67
49343;PMS5003;35210;41.606;-87.602;2023-04-15T02:52:05;31.00;27.00;18.00
49343;PMS5003;35210;41.606;-87.602;2023-04-15T02:54:33;26.60;24.60;18.00
49343;PMS5003;35210;41.606;-87.602;2023-04-15T02:57:01;27.50;25.25;17.25
49343;PMS5003;35210;41.606;-87.602;2023-04-15T02:59:31;28.00;25.00;17.75
49343;PMS5003;35210;41.606;-87.602;2023-04-15T03:01:59;28.40;25.40;16.80
49343;PMS5003;35210;41.606;-87.602;2023-04-15T03:04:27;31.50;26.50;18.00
49343;PMS5003;35210;41.606;-87.602;2023-04-15T03:06:55;27.75;25.25;17.00
49343;PMS5003;35210;41.606;-87.602;2023-04-15T03:09:28;26.75;22.25;16.50
49343;PMS5003;35210;41.606;-87.602;2023-04-15T03:11:56;27.00;26.00;18.00
49343;PMS5003;35210;41.606;-87.602;2023-04-15T03:14:24;28.50;23.25;15.75
49343;PMS5003;35210;41.606;-87.602;2023-04-15T03:16:52;31.25;29.75;19.00
49343;PMS5003;35210;41.606;-87.602;2023-04-15T03:19:21;29.00;29.00;20.00
49343;PMS5003;35210;41.606;-87.602;2023-04-15T03:21:49;31.25;28.25;19.00
49343;PMS5003;35210;41.606;-87.602;2023-04-15T03:24:17;28.50;25.25;17.75
49343;PMS5003;35210;41.606;-87.602;2023-04-15T03:26:46;37.50;30.50;20.00
49343;PMS5003;35210;41.606;-87.602;2023-04-15T03:29:15;30.50;29.75;20.00
49343;PMS5003;35210;41.606;-87.602;2023-04-15T03:31:44;26.50;24.50;17.75
49343;PMS5003;35210;41.606;-87.602;2023-04-15T03:34:12;30.50;29.25;19.75
49343;PMS5003;35210;41.606;-87.602;2023-04-15T03:36:40;34.50;30.25;20.00
49343;PMS5003;35210;41.606;-87.602;2023-04-15T03:39:08;29.00;28.50;18.50
49343;PMS5003;35210;41.606;-87.602;2023-04-15T03:41:37;32.00;27.25;19.75
49343;PMS5003;35210;41.606;-87.602;2023-04-15T03:44:07;29.50;25.25;17.00
49343;PMS5003;35210;41.606;-87.602;2023-04-15T03:46:35;35.25;29.50;20.00
49343;PMS5003;35210;41.606;-87.602;2023-04-15T03:49:03;40.00;30.50;20.50
49343;PMS5003;35210;41.606;-87.602;2023-04-15T03:51:32;35.50;30.00;20.00
49343;PMS5003;35210;41.606;-87.602;2023-04-15T03:54:02;28.50;25.75;15.00
49343;PMS5003;35210;41.606;-87.602;2023-04-15T03:56:30;40.50;28.50;19.25
49343;PMS5003;35210;41.606;-87.602;2023-04-15T03:58:58;33.25;30.50;19.75
49343;PMS5003;35210;41.606;-87.602;2023-04-15T04:01:28;29.25;28.50;18.50
49343;PMS5003;35210;41.606;-87.602;2023-04-15T04:03:56;27.75;27.00;19.50
49343;PMS5003;35210;41.606;-87.602;2023-04-15T04:06:24;33.50;31.00;20.50
49343;PMS5003;35210;41.606;-87.602;2023-04-15T04:08:53;37.75;30.00;20.00
49343;PMS5003;35210;41.606;-87.602;2023-04-15T04:11:21;40.25;30.50;20.75
49343;PMS5003;35210;41.606;-87.602;2023-04-15T04:13:49;43.50;30.75;20.50
49343;PMS5003;35210;41.606;-87.602;2023-04-15T04:16:17;40.00;32.00;21.25
49343;PMS5003;35210;41.606;-87.602;2023-04-15T04:18:47;31.75;29.50;21.25
49343;PMS5003;35210;41.606;-87.602;2023-04-15T04:21:16;39.75;33.25;20.75
49343;PMS5003;35210;41.606;-87.602;2023-04-15T04:23:45;34.00;30.00;20.50
49343;PMS5003;35210;41.606;-87.602;2023-04-15T04:26:13;40.00;32.25;21.50
49343;PMS5003;35210;41.606;-87.602;2023-04-15T04:28:41;38.75;33.00;21.25
49343;PMS5003;35210;41.606;-87.602;2023-04-15T04:31:10;41.50;33.75;22.00
49343;PMS5003;35210;41.606;-87.602;2023-04-15T04:33:38;37.75;29.50;20.50
49343;PMS5003;35210;41.606;-87.602;2023-04-15T04:36:08;39.00;30.25;21.25
49343;PMS5003;35210;41.606;-87.602;2023-04-15T04:38:36;34.50;32.00;21.75
49343;PMS5003;35210;41.606;-87.602;2023-04-15T04:41:04;36.00;29.25;20.25
49343;PMS5003;35210;41.606;-87.602;2023-04-15T04:43:32;31.75;29.25;18.25
49343;PMS5003;35210;41.606;-87.602;2023-04-15T04:46:01;35.00;30.50;21.75
49343;PMS5003;35210;41.606;-87.602;2023-04-15T04:48:30;39.00;34.25;20.75
49343;PMS5003;35210;41.606;-87.602;2023-04-15T04:50:58;36.75;29.75;20.75
49343;PMS5003;35210;41.606;-87.602;2023-04-15T04:53:27;35.50;30.25;21.75
49343;PMS5003;35210;41.606;-87.602;2023-04-15T04:55:56;38.50;33.00;20.50
49343;PMS5003;35210;41.606;-87.602;2023-04-15T04:58:24;39.75;32.25;20.50
49343;PMS5003;35210;41.606;-87.602;2023-04-15T05:00:52;34.00;30.50;20.50
49343;PMS5003;35210;41.606;-87.602;2023-04-15T05:03:21;39.25;34.25;21.25
49343;PMS5003;35210;41.606;-87.602;2023-04-15T05:05:49;34.50;31.00;21.50
49343;PMS5003;35210;41.606;-87.602;2023-04-15T05:08:17;34.00;29.75;21.50
49343;PMS5003;35210;41.606;-87.602;2023-04-15T05:10:47;33.75;29.50;20.75
49343;PMS5003;35210;41.606;-87.602;2023-04-15T05:13:15;31.00;27.25;19.75
49343;PMS5003;35210;41.606;-87.602;2023-04-15T05:15:43;38.00;31.75;21.25
49343;PMS5003;35210;41.606;-87.602;2023-04-15T05:18:11;37.75;30.25;21.00
49343;PMS5003;35210;41.606;-87.602;2023-04-15T05:20:39;36.25;31.75;20.75
49343;PMS5003;35210;41.606;-87.602;2023-04-15T05:23:10;31.50;26.75;18.75
49343;PMS5003;35210;41.606;-87.602;2023-04-15T05:25:38;15.00;13.25;3.25
49343;PMS5003;35210;41.606;-87.602;2023-04-15T05:28:08;33.75;31.00;20.00
49343;PMS5003;35210;41.606;-87.602;2023-04-15T05:30:37;34.00;30.25;20.25
49343;PMS5003;35210;41.606;-87.602;2023-04-15T05:33:05;35.25;33.25;20.75
49343;PMS5003;35210;41.606;-87.602;2023-04-15T05:35:33;38.00;30.25;20.25
49343;PMS5003;35210;41.606;-87.602;2023-04-15T05:38:01;42.75;31.25;19.75
49343;PMS5003;35210;41.606;-87.602;2023-04-15T05:40:30;34.00;27.25;17.75
49343;PMS5003;35210;41.606;-87.602;2023-04-15T05:42:58;29.00;27.00;19.50
49343;PMS5003;35210;41.606;-87.602;2023-04-15T05:45:28;30.60;27.20;19.20
49343;PMS5003;35210;41.606;-87.602;2023-04-15T05:47:56;12.60;12.60;9.60
49343;PMS5003;35210;41.606;-87.602;2023-04-15T05:50:24;26.50;24.00;16.75
49343;PMS5003;35210;41.606;-87.602;2023-04-15T05:52:52;28.75;24.00;16.75
49343;PMS5003;35210;41.606;-87.602;2023-04-15T05:55:20;18.20;16.20;11.60
49343;PMS5003;35210;41.606;-87.602;2023-04-15T05:57:48;17.00;15.40;10.80
49343;PMS5003;35210;41.606;-87.602;2023-04-15T06:00:16;21.20;17.80;11.80
49343;PMS5003;35210;41.606;-87.602;2023-04-15T06:02:47;22.40;20.40;14.20
49343;PMS5003;35210;41.606;-87.602;2023-04-15T06:05:16;19.00;17.80;12.00
49343;PMS5003;35210;41.606;-87.602;2023-04-15T06:07:45;18.20;18.20;13.80
49343;PMS5003;35210;41.606;-87.602;2023-04-15T06:10:14;19.00;18.20;12.80
49343;PMS5003;35210;41.606;-87.602;2023-04-15T06:12:42;18.40;13.20;7.80
49343;PMS5003;35210;41.606;-87.602;2023-04-15T06:15:10;20.20;15.40;12.40
49343;PMS5003;35210;41.606;-87.602;2023-04-15T06:17:38;18.40;14.80;12.00
49343;PMS5003;35210;41.606;-87.602;2023-04-15T06:20:08;14.00;14.00;11.60
49343;PMS5003;35210;41.606;-87.602;2023-04-15T06:22:37;16.80;14.80;11.20
49343;PMS5003;35210;41.606;-87.602;2023-04-15T06:25:06;12.60;10.60;8.20
49343;PMS5003;35210;41.606;-87.602;2023-04-15T06:27:35;13.60;12.60;9.60
49343;PMS5003;35210;41.606;-87.602;2023-04-15T06:30:04;11.60;9.80;9.00
49343;PMS5003;35210;41.606;-87.602;2023-04-15T06:32:33;10.80;10.80;8.40
49343;PMS5003;35210;41.606;-87.602;2023-04-15T06:35:01;12.20;11.40;8.40
49343;PMS5003;35210;41.606;-87.602;2023-04-15T06:37:31;10.40;9.00;8.00
49343;PMS5003;35210;41.606;-87.602;2023-04-15T06:40:02;15.40;11.40;8.60
49343;PMS5003;35210;41.606;-87.602;2023-04-15T06:42:30;11.00;9.20;7.40
49343;PMS5003;35210;41.606;-87.602;2023-04-15T06:44:58;12.80;9.60;6.80
49343;PMS5003;35210;41.606;-87.602;2023-04-15T06:47:27;10.40;10.40;8.20
49343;PMS5003;35210;41.606;-87.602;2023-04-15T06:49:55;7.80;7.80;6.20
49343;PMS5003;35210;41.606;-87.602;2023-04-15T06:52:23;13.40;11.60;9.00
49343;PMS5003;35210;41.606;-87.602;2023-04-15T06:54:52;13.60;13.60;9.20
49343;PMS5003;35210;41.606;-87.602;2023-04-15T06:57:21;11.40;11.00;8.40
49343;PMS5003;35210;41.606;-87.602;2023-04-15T06:59:49;13.60;9.80;7.80
49343;PMS5003;35210;41.606;-87.602;2023-04-15T07:02:19;9.40;9.40;7.40
49343;PMS5003;35210;41.606;-87.602;2023-04-15T07:04:48;12.00;11.00;9.00
49343;PMS5003;35210;41.606;-87.602;2023-04-15T07:07:16;11.00;10.20;8.80
49343;PMS5003;35210;41.606;-87.602;2023-04-15T07:09:44;11.40;10.40;7.80
49343;PMS5003;35210;41.606;-87.602;2023-04-15T07:12:13;9.40;9.00;8.00
49343;PMS5003;35210;41.606;-87.602;2023-04-15T07:14:42;5.60;5.00;3.00
49343;PMS5003;35210;41.606;-87.602;2023-04-15T07:17:10;9.40;9.40;8.40
49343;PMS5003;35210;41.606;-87.602;2023-04-15T07:19:38;16.40;11.20;8.00
49343;PMS5003;35210;41.606;-87.602;2023-04-15T07:22:06;10.60;9.60;7.00
49343;PMS5003;35210;41.606;-87.602;2023-04-15T07:24:34;10.00;10.00;7.00
49343;PMS5003;35210;41.606;-87.602;2023-04-15T07:27:02;8.00;7.60;5.40
49343;PMS5003;35210;41.606;-87.602;2023-04-15T07:29:32;14.20;10.20;7.80
49343;PMS5003;35210;41.606;-87.602;2023-04-15T07:32:00;10.80;10.40;8.60
49343;PMS5003;35210;41.606;-87.602;2023-04-15T07:34:28;12.20;11.60;8.40
49343;PMS5003;35210;41.606;-87.602;2023-04-15T07:36:56;11.20;10.80;8.40
49343;PMS5003;35210;41.606;-87.602;2023-04-15T07:39:24;8.20;8.20;6.00
49343;PMS5003;35210;41.606;-87.602;2023-04-15T07:41:52;14.00;10.60;7.00
49343;PMS5003;35210;41.606;-87.602;2023-04-15T07:44:20;10.40;8.40;7.00
49343;PMS5003;35210;41.606;-87.602;2023-04-15T07:46:51;9.60;8.00;6.00
49343;PMS5003;35210;41.606;-87.602;2023-04-15T07:49:19;9.80;9.40;7.80
49343;PMS5003;35210;41.606;-87.602;2023-04-15T07:51:47;10.40;8.00;7.00
49343;PMS5003;35210;41.606;-87.602;2023-04-15T07:54:16;7.00;7.00;6.20
49343;PMS5003;35210;41.606;-87.602;2023-04-15T07:56:44;10.00;10.00;7.80
49343;PMS5003;35210;41.606;-87.602;2023-04-15T07:59:13;10.20;8.40;6.40
49343;PMS5003;35210;41.606;-87.602;2023-04-15T08:01:43;10.80;7.40;6.20
49343;PMS5003;35210;41.606;-87.602;2023-04-15T08:04:13;9.20;9.20;6.80
49343;PMS5003;35210;41.606;-87.602;2023-04-15T08:06:41;8.80;8.80;8.00
49343;PMS5003;35210;41.606;-87.602;2023-04-15T08:09:09;8.00;7.80;5.00
49343;PMS5003;35210;41.606;-87.602;2023-04-15T08:11:37;10.80;9.20;7.00
49343;PMS5003;35210;41.606;-87.602;2023-04-15T08:14:06;8.00;7.80;5.20
49343;PMS5003;35210;41.606;-87.602;2023-04-15T08:16:34;7.40;7.40;6.00
49343;PMS5003;35210;41.606;-87.602;2023-04-15T08:19:02;10.80;9.20;7.00
49343;PMS5003;35210;41.606;-87.602;2023-04-15T08:21:31;7.80;7.80;6.00
49343;PMS5003;35210;41.606;-87.602;2023-04-15T08:23:59;8.40;8.20;6.00
49343;PMS5003;35210;41.606;-87.602;2023-04-15T08:26:28;7.60;6.80;6.00
49343;PMS5003;35210;41.606;-87.602;2023-04-15T08:28:56;8.00;8.00;6.00
49343;PMS5003;35210;41.606;-87.602;2023-04-15T08:31:25;11.00;9.80;7.00
49343;PMS5003;35210;41.606;-87.602;2023-04-15T08:33:55;9.00;9.00;6.20
49343;PMS5003;35210;41.606;-87.602;2023-04-15T08:36:24;7.00;7.00;6.00
49343;PMS5003;35210;41.606;-87.602;2023-04-15T08:38:54;7.80;7.80;6.20
49343;PMS5003;35210;41.606;-87.602;2023-04-15T08:41:23;9.00;9.00;5.00
49343;PMS5003;35210;41.606;-87.602;2023-04-15T08:43:52;8.00;8.00;5.80
49343;PMS5003;35210;41.606;-87.602;2023-04-15T08:46:23;7.60;7.20;6.20
49343;PMS5003;35210;41.606;-87.602;2023-04-15T08:48:51;8.00;8.00;6.00
49343;PMS5003;35210;41.606;-87.602;2023-04-15T08:51:23;7.40;7.00;6.00
49343;PMS5003;35210;41.606;-87.602;2023-04-15T08:53:54;9.60;8.80;7.20
49343;PMS5003;35210;41.606;-87.602;2023-04-15T08:56:23;7.40;7.00;5.80
49343;PMS5003;35210;41.606;-87.602;2023-04-15T08:58:52;11.20;9.40;7.00
49343;PMS5003;35210;41.606;-87.602;2023-04-15T09:01:20;10.00;8.60;7.00
49343;PMS5003;35210;41.606;-87.602;2023-04-15T09:03:50;7.80;7.80;6.40
49343;PMS5003;35210;41.606;-87.602;2023-04-15T09:06:20;7.40;7.00;5.00
49343;PMS5003;35210;41.606;-87.602;2023-04-15T09:08:48;9.80;9.00;6.20
49343;PMS5003;35210;41.606;-87.602;2023-04-15T09:11:19;12.40;9.40;7.20
49343;PMS5003;35210;41.606;-87.602;2023-04-15T09:13:49;10.60;8.00;6.40
49343;PMS5003;35210;41.606;-87.602;2023-04-15T09:16:17;8.20;8.20;6.40
49343;PMS5003;35210;41.606;-87.602;2023-04-15T09:18:45;11.60;8.20;6.80
49343;PMS5003;35210;41.606;-87.602;2023-04-15T09:21:14;8.00;8.00;6.20
49343;PMS5003;35210;41.606;-87.602;2023-04-15T09:23:53;11.60;10.60;8.00
49343;PMS5003;35210;41.606;-87.602;2023-04-15T09:26:34;10.00;8.00;5.80
49343;PMS5003;35210;41.606;-87.602;2023-04-15T09:29:05;9.80;9.40;7.80
49343;PMS5003;35210;41.606;-87.602;2023-04-15T09:31:34;8.80;7.40;5.60
49343;PMS5003;35210;41.606;-87.602;2023-04-15T09:34:02;9.00;9.00;7.00
49343;PMS5003;35210;41.606;-87.602;2023-04-15T09:36:35;8.60;7.40;5.80
49343;PMS5003;35210;41.606;-87.602;2023-04-15T09:39:18;7.60;7.60;6.00
49343;PMS5003;35210;41.606;-87.602;2023-04-15T09:41:48;8.60;7.00;6.00
49343;PMS5003;35210;41.606;-87.602;2023-04-15T09:44:31;8.80;7.40;7.00
49343;PMS5003;35210;41.606;-87.602;2023-04-15T09:47:00;10.60;9.60;6.00
49343;PMS5003;35210;41.606;-87.602;2023-04-15T09:49:28;9.80;8.80;7.00
49343;PMS5003;35210;41.606;-87.602;2023-04-15T09:51:59;9.40;9.20;7.00
49343;PMS5003;35210;41.606;-87.602;2023-04-15T09:54:35;10.00;10.00;7.60
49343;PMS5003;35210;41.606;-87.602;2023-04-15T09:57:06;11.40;9.00;8.00
49343;PMS5003;35210;41.606;-87.602;2023-04-15T09:59:35;13.80;12.00;9.00
49343;PMS5003;35210;41.606;-87.602;2023-04-15T10:02:04;8.40;7.00;5.00
49343;PMS5003;35210;41.606;-87.602;2023-04-15T10:04:34;6.40;6.40;5.00
49343;PMS5003;35210;41.606;-87.602;2023-04-15T10:07:06;10.60;9.20;7.60
49343;PMS5003;35210;41.606;-87.602;2023-04-15T10:09:35;10.80;10.80;9.00
49343;PMS5003;35210;41.606;-87.602;2023-04-15T10:12:07;11.60;11.60;8.00
49343;PMS5003;35210;41.606;-87.602;2023-04-15T10:14:36;10.80;10.00;7.80
49343;PMS5003;35210;41.606;-87.602;2023-04-15T10:17:05;11.00;9.40;8.00
49343;PMS5003;35210;41.606;-87.602;2023-04-15T10:19:37;11.40;10.60;8.40
49343;PMS5003;35210;41.606;-87.602;2023-04-15T10:22:06;11.60;10.20;8.00
49343;PMS5003;35210;41.606;-87.602;2023-04-15T10:24:35;13.20;11.60;8.20
49343;PMS5003;35210;41.606;-87.602;2023-04-15T10:27:05;11.20;10.60;7.40
49343;PMS5003;35210;41.606;-87.602;2023-04-15T10:29:40;12.40;10.00;8.00
49343;PMS5003;35210;41.606;-87.602;2023-04-15T10:32:08;11.40;10.00;6.60
49343;PMS5003;35210;41.606;-87.602;2023-04-15T10:34:41;9.00;8.00;6.80
49343;PMS5003;35210;41.606;-87.602;2023-04-15T10:37:09;13.80;13.00;9.20
49343;PMS5003;35210;41.606;-87.602;2023-04-15T10:39:38;12.60;12.60;8.00
49343;PMS5003;35210;41.606;-87.602;2023-04-15T10:42:09;14.60;11.00;8.00
49343;PMS5003;35210;41.606;-87.602;2023-04-15T10:44:41;11.00;9.40;6.40
49343;PMS5003;35210;41.606;-87.602;2023-04-15T10:47:11;11.20;11.20;8.20
49343;PMS5003;35210;41.606;-87.602;2023-04-15T10:49:43;11.60;10.20;8.40
49343;PMS5003;35210;41.606;-87.602;2023-04-15T10:52:13;12.80;12.00;9.00
49343;PMS5003;35210;41.606;-87.602;2023-04-15T10:54:43;9.00;9.00;7.00
49343;PMS5003;35210;41.606;-87.602;2023-04-15T10:57:21;12.40;12.40;9.40
49343;PMS5003;35210;41.606;-87.602;2023-04-15T11:00:00;10.00;9.80;8.20
49343;PMS5003;35210;41.606;-87.602;2023-04-15T11:02:39;9.80;9.80;7.80
49343;PMS5003;35210;41.606;-87.602;2023-04-15T11:05:09;7.40;7.40;5.80
49343;PMS5003;35210;41.606;-87.602;2023-04-15T11:07:46;8.40;6.60;5.20
49343;PMS5003;35210;41.606;-87.602;2023-04-15T11:13:28;12.00;10.40;8.60
49343;PMS5003;35210;41.606;-87.602;2023-04-15T11:15:59;11.60;9.80;7.60
49343;PMS5003;35210;41.606;-87.602;2023-04-15T11:18:32;12.60;11.40;8.80
49343;PMS5003;35210;41.606;-87.602;2023-04-15T11:21:01;11.20;10.40;9.00
49343;PMS5003;35210;41.606;-87.602;2023-04-15T11:23:36;15.00;14.20;9.80
49343;PMS5003;35210;41.606;-87.602;2023-04-15T11:26:06;12.40;10.80;8.60
49343;PMS5003;35210;41.606;-87.602;2023-04-15T11:28:38;15.40;14.40;10.60
49343;PMS5003;35210;41.606;-87.602;2023-04-15T11:31:08;16.00;16.00;11.00
49343;PMS5003;35210;41.606;-87.602;2023-04-15T11:33:38;22.60;19.60;13.60
49343;PMS5003;35210;41.606;-87.602;2023-04-15T11:36:12;21.20;19.00;12.60
49343;PMS5003;35210;41.606;-87.602;2023-04-15T11:38:45;24.20;21.40;13.00
49343;PMS5003;35210;41.606;-87.602;2023-04-15T11:41:14;21.40;21.40;14.80
49343;PMS5003;35210;41.606;-87.602;2023-04-15T11:43:48;19.20;18.60;12.00
49343;PMS5003;35210;41.606;-87.602;2023-04-15T11:46:16;17.40;16.20;10.80
49343;PMS5003;35210;41.606;-87.602;2023-04-15T11:48:45;19.00;18.00;12.60
49343;PMS5003;35210;41.606;-87.602;2023-04-15T11:51:13;18.80;16.80;12.00
49343;PMS5003;35210;41.606;-87.602;2023-04-15T11:53:42;23.20;19.40;13.00
49343;PMS5003;35210;41.606;-87.602;2023-04-15T11:56:16;19.00;17.00;13.20
49343;PMS5003;35210;41.606;-87.602;2023-04-15T11:58:46;19.00;18.00;13.00
49343;PMS5003;35210;41.606;-87.602;2023-04-15T12:01:18;17.20;15.60;10.00
49343;PMS5003;35210;41.606;-87.602;2023-04-15T12:03:47;21.00;18.00;12.40
49343;PMS5003;35210;41.606;-87.602;2023-04-15T12:06:15;24.20;22.40;14.20
49343;PMS5003;35210;41.606;-87.602;2023-04-15T12:08:58;22.40;18.60;12.80
49343;PMS5003;35210;41.606;-87.602;2023-04-15T12:11:32;17.80;16.80;11.40
49343;PMS5003;35210;41.606;-87.602;2023-04-15T12:14:07;20.80;19.60;13.80
49343;PMS5003;35210;41.606;-87.602;2023-04-15T12:16:37;20.40;20.40;14.20
49343;PMS5003;35210;41.606;-87.602;2023-04-15T12:19:08;15.80;15.80;11.00
49343;PMS5003;35210;41.606;-87.602;2023-04-15T12:21:38;19.40;19.40;14.00
49343;PMS5003;35210;41.606;-87.602;2023-04-15T12:24:07;18.20;18.20;12.60
49343;PMS5003;35210;41.606;-87.602;2023-04-15T12:26:41;18.80;18.00;12.20
49343;PMS5003;35210;41.606;-87.602;2023-04-15T12:29:14;15.20;13.20;10.00
49343;PMS5003;35210;41.606;-87.602;2023-04-15T12:31:46;19.80;18.00;11.00
49343;PMS5003;35210;41.606;-87.602;2023-04-15T12:34:16;17.20;15.40;11.00
49343;PMS5003;35210;41.606;-87.602;2023-04-15T12:36:52;21.60;19.00;10.80
49343;PMS5003;35210;41.606;-87.602;2023-04-15T12:39:21;22.00;18.60;11.20
49343;PMS5003;35210;41.606;-87.602;2023-04-15T12:41:50;19.60;15.80;10.00
49343;PMS5003;35210;41.606;-87.602;2023-04-15T12:44:21;16.00;15.20;10.80
49343;PMS5003;35210;41.606;-87.602;2023-04-15T12:46:50;18.00;16.40;11.20
49343;PMS5003;35210;41.606;-87.602;2023-04-15T12:49:18;17.20;17.20;11.20
49343;PMS5003;35210;41.606;-87.602;2023-04-15T12:51:47;15.00;13.80;9.00
49343;PMS5003;35210;41.606;-87.602;2023-04-15T12:54:16;14.20;13.60;9.40
49343;PMS5003;35210;41.606;-87.602;2023-04-15T12:56:45;17.60;14.80;10.60
49343;PMS5003;35210;41.606;-87.602;2023-04-15T12:59:15;13.40;12.40;9.00
49343;PMS5003;35210;41.606;-87.602;2023-04-15T13:01:45;17.80;12.60;8.80
49343;PMS5003;35210;41.606;-87.602;2023-04-15T13:04:14;13.40;13.40;9.60
49343;PMS5003;35210;41.606;-87.602;2023-04-15T13:06:43;13.80;11.60;8.20
49343;PMS5003;35210;41.606;-87.602;2023-04-15T13:09:11;14.00;14.00;8.80
49343;PMS5003;35210;41.606;-87.602;2023-04-15T13:11:39;8.20;8.00;7.00
49343;PMS5003;35210;41.606;-87.602;2023-04-15T13:14:07;9.00;8.60;4.40
49343;PMS5003;35210;41.606;-87.602;2023-04-15T13:16:37;13.60;13.60;9.40
49343;PMS5003;35210;41.606;-87.602;2023-04-15T13:19:07;14.40;10.80;7.60
49343;PMS5003;35210;41.606;-87.602;2023-04-15T13:21:35;11.80;10.00;8.00
49343;PMS5003;35210;41.606;-87.602;2023-04-15T13:24:03;11.20;11.20;8.80
49343;PMS5003;35210;41.606;-87.602;2023-04-15T13:26:32;11.20;9.80;7.00
49343;PMS5003;35210;41.606;-87.602;2023-04-15T13:29:00;14.00;11.60;9.20
49343;PMS5003;35210;41.606;-87.602;2023-04-15T13:31:29;12.20;10.60;8.80
49343;PMS5003;35210;41.606;-87.602;2023-04-15T13:33:57;10.20;10.20;8.40
49343;PMS5003;35210;41.606;-87.602;2023-04-15T13:36:27;12.80;11.60;8.40
49343;PMS5003;35210;41.606;-87.602;2023-04-15T13:38:55;10.20;9.60;8.00
49343;PMS5003;35210;41.606;-87.602;2023-04-15T13:41:24;10.20;9.00;6.60
49343;PMS5003;35210;41.606;-87.602;2023-04-15T13:43:52;11.80;11.40;8.00
49343;PMS5003;35210;41.606;-87.602;2023-04-15T13:46:22;10.60;10.60;8.00